TERMINUS DAM (TRM)

Elevation: 752' · KAWEAH R basin · Operator: US Army Corps of Engineers

Provisional data, subject to change.
Query executed Sunday at 1:54:52   clock

Select a sensor type for a plot of data.
Note: Reservoir Flows are daily averages.

Earlier

Date RES ELE    STORAGE    RES CHG    TOC STO    ABV TOC    OUTFLOW    INFLOW    FNF    PPT INC    TEMP MN    TEMP MX    WINDLEN    EVP PAN   
 FEET   AF   AF   AF   AF   CFS   CFS   CFS   INCHES   DEG F   DEG F   MILES   INCHES  
12/26/2014 602.85 21819 -- 11629 10190 21 130 126 0.00 4 14 74 0.06
12/27/2014 603.08 21973 -- 11761 -- 21 101 101 0.00 2 16 85 0.07
12/28/2014 603.29 22115 -- 11903 10212 20 93 93 0.00 3 15 81 0.07
12/29/2014 603.48 22244 129 12000 10244 20 86 86 0.00 2 14 83 0.06
12/30/2014 603.67 22373 129 12000 10373 21 86 86 0.00 4 7 65 0.02
12/31/2014 603.79 22455 82 -- -- -- -- 66 -- -- -- -- --
01/01/2015 603.88 22517 62 12000 10517 27 60 60 0.00 0 15 110 0.08
01/02/2015 603.99 22592 75 12000 10592 26 65 65 0.00 1 14 88 0.07
01/03/2015 604.12 22682 90 12000 10682 23 70 70 0.00 1 14 88 0.07
01/04/2015 604.25 22771 89 12000 10771 20 67 67 0.00 3 15 88 0.07
01/05/2015 604.38 22861 90 12000 10861 14 61 61 0.00 3 17 115 0.08
01/06/2015 604.54 22972 111 12000 10972 12 70 70 0.00 5 20 135 0.10
01/07/2015 604.71 23091 119 12000 11091 12 75 75 0.00 6 21 106 0.09
01/08/2015 604.90 23224 133 12000 11224 12 81 81 0.00 7 20 114 0.09
01/09/2015 605.12 23378 154 12000 11378 11 90 90 0.00 10 18 90 0.06
01/10/2015 605.35 23540 162 12000 11540 10 94 94 0.00 9 21 78 0.08
01/11/2015 605.59 23711 171 12000 11711 10 98 98 0.00 10 19 89 0.06
01/12/2015 605.82 23874 163 12000 11874 11 94 94 0.00 9 12 77 0.02
01/13/2015 606.04 24032 158 -- -- 10 91 91 0.00 8 19 61 0.06
01/14/2015 606.24 24176 144 -- -- 10 84 84 0.00 6 18 91 0.08
01/15/2015 606.41 24299 123 -- -- 10 73 73 0.00 2 16 80 0.06
01/16/2015 606.58 24422 123 12000 -- 10 73 73 0.00 5 14 81 0.06
01/17/2015 606.74 24538 116 12000 -- 10 70 70 0.00 4 11 88 0.05
01/18/2015 606.91 24662 124 12000 -- 10 74 74 0.00 6 13 89 0.05
01/19/2015 607.08 24787 125 12000 -- 10 74 74 0.00 6 13 67 0.04
01/20/2015 607.26 24919 132 12114 12805 11 78 78 0.00 7 10 54 0.03
01/21/2015 607.44 25052 133 12227 12825 11 79 79 0.00 8 12 61 0.05
01/22/2015 607.60 25170 118 12341 12829 11 72 -- 0.00 5 15 81 0.06
01/23/2015 607.76 25289 119 12455 12834 11 72 -- 0.00 3 10 86 0.03
01/24/2015 -- -- -- -- -- -- -- -- -- -- -- -- --
01/25/2015 -- -- -- -- -- -- -- -- -- -- -- -- --

Later | Latest

Warning! This data is preliminary and subject to revision.

Show TRM Map | Plot TRM Data | 1 Month TRM Data | Real-Time TRM Data | TRM Info